sensor_id;sensor_type;location;lat;lon;timestamp;temperature;humidity
31525;DHT22;18134;52.298;8.888;2023-02-01T00:00:00;5.20;99.90
31525;DHT22;18134;52.298;8.888;2023-02-01T00:02:26;5.10;99.90
31525;DHT22;18134;52.298;8.888;2023-02-01T00:04:54;4.80;99.90
31525;DHT22;18134;52.298;8.888;2023-02-01T00:09:45;4.60;99.90
31525;DHT22;18134;52.298;8.888;2023-02-01T00:12:11;4.80;99.90
31525;DHT22;18134;52.298;8.888;2023-02-01T00:14:37;4.80;99.90
31525;DHT22;18134;52.298;8.888;2023-02-01T00:17:05;5.30;99.90
31525;DHT22;18134;52.298;8.888;2023-02-01T00:19:31;5.40;99.90
31525;DHT22;18134;52.298;8.888;2023-02-01T00:21:56;5.00;99.90
31525;DHT22;18134;52.298;8.888;2023-02-01T00:24:24;5.30;99.90
31525;DHT22;18134;52.298;8.888;2023-02-01T00:26:50;5.20;99.90
31525;DHT22;18134;52.298;8.888;2023-02-01T00:29:16;5.60;99.90
31525;DHT22;18134;52.298;8.888;2023-02-01T00:31:42;5.30;99.90
31525;DHT22;18134;52.298;8.888;2023-02-01T00:34:12;5.50;99.90
31525;DHT22;18134;52.298;8.888;2023-02-01T00:36:38;5.20;99.90
31525;DHT22;18134;52.298;8.888;2023-02-01T00:39:03;5.20;99.90
31525;DHT22;18134;52.298;8.888;2023-02-01T00:41:29;5.00;99.90
31525;DHT22;18134;52.298;8.888;2023-02-01T00:43:54;5.10;99.90
31525;DHT22;18134;52.298;8.888;2023-02-01T00:46:23;5.00;99.90
31525;DHT22;18134;52.298;8.888;2023-02-01T00:48:50;5.10;99.90
31525;DHT22;18134;52.298;8.888;2023-02-01T00:51:26;5.30;99.90
31525;DHT22;18134;52.298;8.888;2023-02-01T00:53:52;5.00;99.90
31525;DHT22;18134;52.298;8.888;2023-02-01T00:56:21;4.80;99.90
31525;DHT22;18134;52.298;8.888;2023-02-01T00:58:47;5.30;99.90
31525;DHT22;18134;52.298;8.888;2023-02-01T01:01:16;4.80;99.90
31525;DHT22;18134;52.298;8.888;2023-02-01T01:03:47;5.40;99.90
31525;DHT22;18134;52.298;8.888;2023-02-01T01:06:16;5.00;99.90
31525;DHT22;18134;52.298;8.888;2023-02-01T01:08:43;4.80;99.90
31525;DHT22;18134;52.298;8.888;2023-02-01T01:11:11;5.10;99.90
31525;DHT22;18134;52.298;8.888;2023-02-01T01:13:37;4.90;99.90
31525;DHT22;18134;52.298;8.888;2023-02-01T01:16:04;5.00;99.90
31525;DHT22;18134;52.298;8.888;2023-02-01T01:18:30;4.80;99.90
31525;DHT22;18134;52.298;8.888;2023-02-01T01:20:55;5.00;99.90
31525;DHT22;18134;52.298;8.888;2023-02-01T01:23:21;5.10;99.90
31525;DHT22;18134;52.298;8.888;2023-02-01T01:25:46;5.10;99.90
31525;DHT22;18134;52.298;8.888;2023-02-01T01:28:14;5.40;99.90
31525;DHT22;18134;52.298;8.888;2023-02-01T01:30:40;6.00;99.90
31525;DHT22;18134;52.298;8.888;2023-02-01T01:33:05;5.40;99.90
31525;DHT22;18134;52.298;8.888;2023-02-01T01:35:31;5.50;99.90
31525;DHT22;18134;52.298;8.888;2023-02-01T01:37:58;5.00;99.90
31525;DHT22;18134;52.298;8.888;2023-02-01T01:40:28;5.00;99.90
31525;DHT22;18134;52.298;8.888;2023-02-01T01:42:54;5.20;99.90
31525;DHT22;18134;52.298;8.888;2023-02-01T01:45:26;5.10;99.90
31525;DHT22;18134;52.298;8.888;2023-02-01T01:47:52;5.30;99.90
31525;DHT22;18134;52.298;8.888;2023-02-01T01:50:22;5.00;99.90
31525;DHT22;18134;52.298;8.888;2023-02-01T01:52:52;5.10;99.90
31525;DHT22;18134;52.298;8.888;2023-02-01T01:55:20;5.20;99.90
31525;DHT22;18134;52.298;8.888;2023-02-01T01:57:50;5.10;99.90
31525;DHT22;18134;52.298;8.888;2023-02-01T02:00:17;5.10;99.90
31525;DHT22;18134;52.298;8.888;2023-02-01T02:02:47;5.10;99.90
31525;DHT22;18134;52.298;8.888;2023-02-01T02:05:15;5.00;99.90
31525;DHT22;18134;52.298;8.888;2023-02-01T02:07:46;5.40;99.90
31525;DHT22;18134;52.298;8.888;2023-02-01T02:10:12;6.10;99.90
31525;DHT22;18134;52.298;8.888;2023-02-01T02:12:39;5.30;99.90
31525;DHT22;18134;52.298;8.888;2023-02-01T02:15:06;5.80;99.90
31525;DHT22;18134;52.298;8.888;2023-02-01T02:23:10;5.70;99.90
31525;DHT22;18134;52.298;8.888;2023-02-01T02:25:46;5.30;99.90
31525;DHT22;18134;52.298;8.888;2023-02-01T02:38:47;5.00;99.90
31525;DHT22;18134;52.298;8.888;2023-02-01T02:41:16;5.20;99.90
31525;DHT22;18134;52.298;8.888;2023-02-01T02:44:21;5.00;99.90
31525;DHT22;18134;52.298;8.888;2023-02-01T02:47:15;5.00;99.90
31525;DHT22;18134;52.298;8.888;2023-02-01T02:52:36;5.10;99.90
31525;DHT22;18134;52.298;8.888;2023-02-01T02:55:22;5.00;99.90
31525;DHT22;18134;52.298;8.888;2023-02-01T02:57:48;6.00;99.90
31525;DHT22;18134;52.298;8.888;2023-02-01T03:00:33;5.00;99.90
31525;DHT22;18134;52.298;8.888;2023-02-01T03:03:17;5.30;99.90
31525;DHT22;18134;52.298;8.888;2023-02-01T03:06:01;5.30;99.90
31525;DHT22;18134;52.298;8.888;2023-02-01T03:08:27;5.20;99.90
31525;DHT22;18134;52.298;8.888;2023-02-01T03:10:57;5.30;99.90
31525;DHT22;18134;52.298;8.888;2023-02-01T03:13:31;4.50;99.90
31525;DHT22;18134;52.298;8.888;2023-02-01T03:18:44;5.30;99.90
31525;DHT22;18134;52.298;8.888;2023-02-01T03:21:13;5.30;99.90
31525;DHT22;18134;52.298;8.888;2023-02-01T03:23:40;5.80;99.90
31525;DHT22;18134;52.298;8.888;2023-02-01T03:26:07;5.30;99.90
31525;DHT22;18134;52.298;8.888;2023-02-01T03:28:34;5.20;99.90
31525;DHT22;18134;52.298;8.888;2023-02-01T03:31:03;5.40;99.90
31525;DHT22;18134;52.298;8.888;2023-02-01T03:33:29;5.30;99.90
31525;DHT22;18134;52.298;8.888;2023-02-01T03:41:31;5.90;99.90
31525;DHT22;18134;52.298;8.888;2023-02-01T03:44:04;5.50;99.90
31525;DHT22;18134;52.298;8.888;2023-02-01T03:46:40;6.00;99.90
31525;DHT22;18134;52.298;8.888;2023-02-01T03:49:08;5.40;99.90
31525;DHT22;18134;52.298;8.888;2023-02-01T03:51:35;5.30;99.90
31525;DHT22;18134;52.298;8.888;2023-02-01T03:54:02;5.40;99.90
31525;DHT22;18134;52.298;8.888;2023-02-01T03:56:28;5.40;99.90
31525;DHT22;18134;52.298;8.888;2023-02-01T03:58:55;5.50;99.90
31525;DHT22;18134;52.298;8.888;2023-02-01T04:01:27;5.50;99.90
31525;DHT22;18134;52.298;8.888;2023-02-01T04:03:53;5.80;99.90
31525;DHT22;18134;52.298;8.888;2023-02-01T04:06:18;5.50;99.90
31525;DHT22;18134;52.298;8.888;2023-02-01T04:08:46;5.50;99.90
31525;DHT22;18134;52.298;8.888;2023-02-01T04:11:12;5.60;99.90
31525;DHT22;18134;52.298;8.888;2023-02-01T04:13:37;5.80;99.90
31525;DHT22;18134;52.298;8.888;2023-02-01T04:16:03;6.20;99.90
31525;DHT22;18134;52.298;8.888;2023-02-01T04:18:29;5.80;99.90
31525;DHT22;18134;52.298;8.888;2023-02-01T04:20:56;6.00;99.90
31525;DHT22;18134;52.298;8.888;2023-02-01T04:23:24;5.60;99.90
31525;DHT22;18134;52.298;8.888;2023-02-01T04:25:52;5.80;99.90
31525;DHT22;18134;52.298;8.888;2023-02-01T04:28:18;5.80;99.90
31525;DHT22;18134;52.298;8.888;2023-02-01T04:30:43;5.80;99.90
31525;DHT22;18134;52.298;8.888;2023-02-01T04:33:10;6.00;99.90
31525;DHT22;18134;52.298;8.888;2023-02-01T04:35:39;5.50;99.90
31525;DHT22;18134;52.298;8.888;2023-02-01T04:38:05;6.10;99.90
31525;DHT22;18134;52.298;8.888;2023-02-01T04:40:30;6.30;99.90
31525;DHT22;18134;52.298;8.888;2023-02-01T04:42:56;5.70;99.90
31525;DHT22;18134;52.298;8.888;2023-02-01T04:45:21;5.70;99.90
31525;DHT22;18134;52.298;8.888;2023-02-01T04:47:47;5.70;99.90
31525;DHT22;18134;52.298;8.888;2023-02-01T04:50:14;5.70;99.90
31525;DHT22;18134;52.298;8.888;2023-02-01T04:52:39;5.80;99.90
31525;DHT22;18134;52.298;8.888;2023-02-01T04:55:05;6.00;99.90
31525;DHT22;18134;52.298;8.888;2023-02-01T04:57:31;5.70;99.90
31525;DHT22;18134;52.298;8.888;2023-02-01T04:59:57;5.80;99.90
31525;DHT22;18134;52.298;8.888;2023-02-01T05:02:22;5.70;99.90
31525;DHT22;18134;52.298;8.888;2023-02-01T05:04:48;5.70;99.90
31525;DHT22;18134;52.298;8.888;2023-02-01T05:09:42;5.60;99.90
31525;DHT22;18134;52.298;8.888;2023-02-01T05:12:08;5.80;99.90
31525;DHT22;18134;52.298;8.888;2023-02-01T05:14:53;5.60;99.90
31525;DHT22;18134;52.298;8.888;2023-02-01T05:17:18;6.30;99.90
31525;DHT22;18134;52.298;8.888;2023-02-01T05:24:38;5.60;99.90
31525;DHT22;18134;52.298;8.888;2023-02-01T05:27:04;5.80;99.90
31525;DHT22;18134;52.298;8.888;2023-02-01T05:29:32;5.80;99.90
31525;DHT22;18134;52.298;8.888;2023-02-01T10:15:09;7.70;99.90
31525;DHT22;18134;52.298;8.888;2023-02-01T10:20:29;7.60;99.90
31525;DHT22;18134;52.298;8.888;2023-02-01T10:26:24;7.70;99.90
31525;DHT22;18134;52.298;8.888;2023-02-01T10:28:30;7.70;99.90
31525;DHT22;18134;52.298;8.888;2023-02-01T10:30:59;7.80;99.90
31525;DHT22;18134;52.298;8.888;2023-02-01T11:07:27;7.30;99.90
31525;DHT22;18134;52.298;8.888;2023-02-01T11:09:54;7.30;99.90
31525;DHT22;18134;52.298;8.888;2023-02-01T11:12:26;7.40;99.90
31525;DHT22;18134;52.298;8.888;2023-02-01T11:14:56;7.30;99.90
31525;DHT22;18134;52.298;8.888;2023-02-01T11:17:32;7.40;99.90
31525;DHT22;18134;52.298;8.888;2023-02-01T11:19:59;7.40;99.90
31525;DHT22;18134;52.298;8.888;2023-02-01T11:22:25;7.60;99.90
31525;DHT22;18134;52.298;8.888;2023-02-01T11:24:53;7.60;99.90
31525;DHT22;18134;52.298;8.888;2023-02-01T11:29:45;7.30;99.90
31525;DHT22;18134;52.298;8.888;2023-02-01T11:32:13;7.70;99.90
31525;DHT22;18134;52.298;8.888;2023-02-01T11:37:04;7.50;99.90
31525;DHT22;18134;52.298;8.888;2023-02-01T11:47:12;7.50;99.90
31525;DHT22;18134;52.298;8.888;2023-02-01T11:52:14;7.60;99.90
31525;DHT22;18134;52.298;8.888;2023-02-01T12:50:44;6.40;99.90
31525;DHT22;18134;52.298;8.888;2023-02-01T12:55:38;6.80;99.90
31525;DHT22;18134;52.298;8.888;2023-02-01T12:58:11;6.40;99.90
31525;DHT22;18134;52.298;8.888;2023-02-01T13:00:43;6.40;99.90
31525;DHT22;18134;52.298;8.888;2023-02-01T13:13:06;6.20;99.90
31525;DHT22;18134;52.298;8.888;2023-02-01T13:15:39;7.00;99.90
31525;DHT22;18134;52.298;8.888;2023-02-01T13:27:52;6.60;99.90
31525;DHT22;18134;52.298;8.888;2023-02-01T13:30:30;6.30;99.90
31525;DHT22;18134;52.298;8.888;2023-02-01T13:38:33;6.40;99.90
31525;DHT22;18134;52.298;8.888;2023-02-01T13:43:43;6.50;99.90
31525;DHT22;18134;52.298;8.888;2023-02-01T13:46:10;6.70;99.90
31525;DHT22;18134;52.298;8.888;2023-02-01T13:48:41;6.90;99.90
31525;DHT22;18134;52.298;8.888;2023-02-01T13:51:11;6.00;99.90
31525;DHT22;18134;52.298;8.888;2023-02-01T13:53:37;7.00;99.90
31525;DHT22;18134;52.298;8.888;2023-02-01T13:56:12;6.90;99.90
31525;DHT22;18134;52.298;8.888;2023-02-01T13:58:41;6.80;99.90
31525;DHT22;18134;52.298;8.888;2023-02-01T14:01:49;5.20;99.90
31525;DHT22;18134;52.298;8.888;2023-02-01T14:03:59;3.80;99.90
31525;DHT22;18134;52.298;8.888;2023-02-01T18:00:46;5.40;99.90
31525;DHT22;18134;52.298;8.888;2023-02-01T18:03:19;5.50;99.90
31525;DHT22;18134;52.298;8.888;2023-02-01T18:10:41;5.80;99.90
31525;DHT22;18134;52.298;8.888;2023-02-01T19:41:01;5.60;99.90
31525;DHT22;18134;52.298;8.888;2023-02-01T19:43:26;5.90;99.90
31525;DHT22;18134;52.298;8.888;2023-02-01T19:45:52;5.60;99.90
31525;DHT22;18134;52.298;8.888;2023-02-01T19:48:18;6.30;99.90
31525;DHT22;18134;52.298;8.888;2023-02-01T19:50:44;5.80;99.90
31525;DHT22;18134;52.298;8.888;2023-02-01T19:53:10;5.80;99.90
31525;DHT22;18134;52.298;8.888;2023-02-01T19:55:37;5.70;99.90
31525;DHT22;18134;52.298;8.888;2023-02-01T19:58:03;6.10;99.90
31525;DHT22;18134;52.298;8.888;2023-02-01T20:00:30;6.30;99.90
31525;DHT22;18134;52.298;8.888;2023-02-01T20:02:56;5.50;99.90
31525;DHT22;18134;52.298;8.888;2023-02-01T20:05:21;5.90;99.90
31525;DHT22;18134;52.298;8.888;2023-02-01T20:07:50;5.80;99.90
31525;DHT22;18134;52.298;8.888;2023-02-01T20:10:16;5.70;99.90
31525;DHT22;18134;52.298;8.888;2023-02-01T20:12:42;5.80;99.90
31525;DHT22;18134;52.298;8.888;2023-02-01T20:15:09;5.70;99.90
31525;DHT22;18134;52.298;8.888;2023-02-01T20:17:35;6.00;99.90
31525;DHT22;18134;52.298;8.888;2023-02-01T20:20:02;5.90;99.90
31525;DHT22;18134;52.298;8.888;2023-02-01T20:22:31;5.80;99.90
31525;DHT22;18134;52.298;8.888;2023-02-01T20:24:57;5.70;99.90
31525;DHT22;18134;52.298;8.888;2023-02-01T20:27:24;6.00;99.90
31525;DHT22;18134;52.298;8.888;2023-02-01T20:29:50;5.80;99.90
31525;DHT22;18134;52.298;8.888;2023-02-01T20:32:16;5.70;99.90
31525;DHT22;18134;52.298;8.888;2023-02-01T20:34:41;5.70;99.90
31525;DHT22;18134;52.298;8.888;2023-02-01T20:37:07;5.80;99.90
31525;DHT22;18134;52.298;8.888;2023-02-01T20:39:33;5.80;99.90
31525;DHT22;18134;52.298;8.888;2023-02-01T20:41:59;5.60;99.90
31525;DHT22;18134;52.298;8.888;2023-02-01T20:44:24;4.90;99.90
31525;DHT22;18134;52.298;8.888;2023-02-01T20:46:50;5.70;99.90
31525;DHT22;18134;52.298;8.888;2023-02-01T20:49:18;5.70;99.90
31525;DHT22;18134;52.298;8.888;2023-02-01T20:51:44;5.00;99.90
31525;DHT22;18134;52.298;8.888;2023-02-01T20:54:10;5.70;99.90
31525;DHT22;18134;52.298;8.888;2023-02-01T20:56:36;5.60;99.90
31525;DHT22;18134;52.298;8.888;2023-02-01T20:59:03;5.50;99.90
31525;DHT22;18134;52.298;8.888;2023-02-01T21:01:35;5.30;99.90
31525;DHT22;18134;52.298;8.888;2023-02-01T21:04:02;5.40;99.90
31525;DHT22;18134;52.298;8.888;2023-02-01T21:06:28;5.30;99.90
31525;DHT22;18134;52.298;8.888;2023-02-01T21:08:53;5.40;99.90
31525;DHT22;18134;52.298;8.888;2023-02-01T21:11:21;5.30;99.90
31525;DHT22;18134;52.298;8.888;2023-02-01T21:13:47;5.40;99.90
31525;DHT22;18134;52.298;8.888;2023-02-01T21:16:17;5.30;99.90
31525;DHT22;18134;52.298;8.888;2023-02-01T21:18:43;5.60;99.90
31525;DHT22;18134;52.298;8.888;2023-02-01T21:21:10;5.50;99.90
31525;DHT22;18134;52.298;8.888;2023-02-01T21:23:36;5.60;99.90
31525;DHT22;18134;52.298;8.888;2023-02-01T21:26:23;5.30;99.90
31525;DHT22;18134;52.298;8.888;2023-02-01T21:28:53;5.40;99.90
31525;DHT22;18134;52.298;8.888;2023-02-01T21:31:22;5.40;99.90
31525;DHT22;18134;52.298;8.888;2023-02-01T21:33:50;5.40;99.90
31525;DHT22;18134;52.298;8.888;2023-02-01T21:36:16;5.40;99.90
31525;DHT22;18134;52.298;8.888;2023-02-01T21:38:48;5.50;99.90
31525;DHT22;18134;52.298;8.888;2023-02-01T21:41:17;5.50;99.90
31525;DHT22;18134;52.298;8.888;2023-02-01T21:44:01;5.50;99.90
31525;DHT22;18134;52.298;8.888;2023-02-01T21:46:27;5.50;99.90
31525;DHT22;18134;52.298;8.888;2023-02-01T21:48:55;5.40;99.90
31525;DHT22;18134;52.298;8.888;2023-02-01T21:51:21;6.10;99.90
31525;DHT22;18134;52.298;8.888;2023-02-01T21:53:46;5.60;99.90
31525;DHT22;18134;52.298;8.888;2023-02-01T21:56:12;5.40;99.90
31525;DHT22;18134;52.298;8.888;2023-02-01T21:58:38;5.70;99.90
31525;DHT22;18134;52.298;8.888;2023-02-01T22:01:03;5.60;99.90
31525;DHT22;18134;52.298;8.888;2023-02-01T22:03:29;5.30;99.90
31525;DHT22;18134;52.298;8.888;2023-02-01T22:05:55;5.90;99.90
31525;DHT22;18134;52.298;8.888;2023-02-01T22:08:23;5.60;99.90
31525;DHT22;18134;52.298;8.888;2023-02-01T22:10:49;5.80;99.90
31525;DHT22;18134;52.298;8.888;2023-02-01T22:13:14;5.80;99.90
31525;DHT22;18134;52.298;8.888;2023-02-01T22:15:40;5.80;99.90
31525;DHT22;18134;52.298;8.888;2023-02-01T22:18:06;5.70;99.90
31525;DHT22;18134;52.298;8.888;2023-02-01T22:20:34;5.80;99.90
31525;DHT22;18134;52.298;8.888;2023-02-01T22:23:00;5.60;99.90
31525;DHT22;18134;52.298;8.888;2023-02-01T22:25:26;5.80;99.90
31525;DHT22;18134;52.298;8.888;2023-02-01T22:27:53;5.80;99.90
31525;DHT22;18134;52.298;8.888;2023-02-01T22:30:20;5.50;99.90
31525;DHT22;18134;52.298;8.888;2023-02-01T22:32:48;5.50;99.90
31525;DHT22;18134;52.298;8.888;2023-02-01T22:35:14;5.50;99.90
31525;DHT22;18134;52.298;8.888;2023-02-01T22:37:40;5.60;99.90
31525;DHT22;18134;52.298;8.888;2023-02-01T22:40:05;5.50;99.90
31525;DHT22;18134;52.298;8.888;2023-02-01T22:42:34;5.60;99.90
31525;DHT22;18134;52.298;8.888;2023-02-01T22:44:59;5.40;99.90
31525;DHT22;18134;52.298;8.888;2023-02-01T22:47:28;5.40;99.90
31525;DHT22;18134;52.298;8.888;2023-02-01T22:49:54;5.30;99.90
31525;DHT22;18134;52.298;8.888;2023-02-01T22:52:22;5.20;99.90
31525;DHT22;18134;52.298;8.888;2023-02-01T22:54:48;5.10;99.90
31525;DHT22;18134;52.298;8.888;2023-02-01T22:57:13;5.20;99.90
31525;DHT22;18134;52.298;8.888;2023-02-01T22:59:41;5.40;99.90
31525;DHT22;18134;52.298;8.888;2023-02-01T23:02:07;4.90;99.90
31525;DHT22;18134;52.298;8.888;2023-02-01T23:04:32;5.00;99.90
31525;DHT22;18134;52.298;8.888;2023-02-01T23:06:58;4.90;99.90
31525;DHT22;18134;52.298;8.888;2023-02-01T23:09:26;5.70;99.90
31525;DHT22;18134;52.298;8.888;2023-02-01T23:11:52;5.00;99.90
31525;DHT22;18134;52.298;8.888;2023-02-01T23:14:17;5.00;99.90
31525;DHT22;18134;52.298;8.888;2023-02-01T23:16:46;5.00;99.90
31525;DHT22;18134;52.298;8.888;2023-02-01T23:19:11;4.90;99.90
31525;DHT22;18134;52.298;8.888;2023-02-01T23:21:37;5.10;99.90
31525;DHT22;18134;52.298;8.888;2023-02-01T23:24:03;5.10;99.90
31525;DHT22;18134;52.298;8.888;2023-02-01T23:26:31;4.90;99.90
31525;DHT22;18134;52.298;8.888;2023-02-01T23:28:57;4.90;99.90
31525;DHT22;18134;52.298;8.888;2023-02-01T23:31:26;4.80;99.90
31525;DHT22;18134;52.298;8.888;2023-02-01T23:33:52;4.80;99.90
31525;DHT22;18134;52.298;8.888;2023-02-01T23:36:20;4.70;99.90
31525;DHT22;18134;52.298;8.888;2023-02-01T23:38:47;4.70;99.90
31525;DHT22;18134;52.298;8.888;2023-02-01T23:41:17;4.80;99.90
31525;DHT22;18134;52.298;8.888;2023-02-01T23:43:43;4.70;99.90
31525;DHT22;18134;52.298;8.888;2023-02-01T23:46:32;5.00;99.90
31525;DHT22;18134;52.298;8.888;2023-02-01T23:49:01;4.60;99.90
31525;DHT22;18134;52.298;8.888;2023-02-01T23:51:27;4.70;99.90
31525;DHT22;18134;52.298;8.888;2023-02-01T23:53:55;4.70;99.90
31525;DHT22;18134;52.298;8.888;2023-02-01T23:58:46;5.00;99.90
